Altona, NY (12910)

1:15 PM EDT on October 23, 2014 (GMT -0400)
KNYELLEN2 | Change Station
CLOSE
Current Station
Personal Weather Station
Location: Ellenburg Depot, NY
Elevation: 1000 ft
Nearby Weather Stations

Elev 1000 ft 44.91 °N, 73.82 °W | Updated 1 second ago

Rain
Rain
41.9 °F
Feels Like 40 °F
N
4.0
Wind Variable Wind from NNW
Gusts 4.0 mph

Today
High -- | Low -- °F
--% Chance of Precip.
Yesterday
High -- | Low -- °F
Precip. -- in
7:20 AM 5:56 PM
Waning Crescent, 0% visible
Pressure 29.97 in
Visibility 6.0 miles
Clouds Mostly Cloudy 1500 ft
Overcast 2000 ft
Windchill 40 °F
Dew Point 41 °F
Humidity 96%
Rainfall 0.02 in
Snow Depth Not available.
UV 1 out of 12
Pollen .10 out of 12
Air Quality Not available.
Flu Activity Sporadic
SPECI KPBG 231710Z AUTO 35017KT 6SM -RA BR BKN015 OVC020 07/06 A2997 RMK AO2 P0001 T00670056

More Conditions Fewer Conditions

Pressure 29.97 in
Visibility 6.0 miles
Clouds Mostly Cloudy 1500 ft
Overcast 2000 ft
Windchill 40 °F
Dew Point 41 °F
Humidity 96%
Rainfall 0.02 in
Snow Depth Not available.
UV 1 out of 12
Pollen .10 out of 12
Air Quality Not available.
Flu Activity Sporadic
SPECI KPBG 231710Z AUTO 35017KT 6SM -RA BR BKN015 OVC020 07/06 A2997 RMK AO2 P0001 T00670056

More Conditions Fewer Conditions

10-Day Weather Forecast

Almanac

Astronomy

Oct. 23, 2014 Rise Set
Actual Time 7:20 AM EDT 5:56 PM EDT
Civil Twilight 6:50 AM EDT 6:26 PM EDT
Nautical Twilight 6:16 AM EDT 7:00 PM EDT
Astronomical Twilight 5:42 AM EDT 7:34 PM EDT
Moon 6:56 AM EDT 5:56 PM EDT
Length of Visible Light 11h 35m
Length of Day
10h 35m
Tomorrow will be 2m 56s shorter.
Waning Crescent, 0% of the Moon is Illuminated
Today
Waning Crescent
Oct 23
New
Oct 30
First Quarter
Nov 6
Full
Nov 14
Last Quarter

Today's Extremes

State Highs State Lows

Community

WunderPhotos

Upload Photos

1,764,316 photos uploaded!

WunderBlogs® & News

Nearby

Air Quality

  Air Quality AQ Index Pollutant
Thursday Good
PM2.5

Snow Depth

Station Depth Elevation
No new snow has been reported.

Earthquake Activity

City Distance Mag. Time & Date
No recent earthquake activity has been reported nearby.
Minimum magnitude displayed is 2.5.

Coastal Water Temperatures

Place Temperature
No Stations Reporting

Nearby Weather Stations